Time;durP1;ratioP1;P1;durP2;ratioP2;P2;SDS_P1;SDS_P2;PMS_P1;PMS_P2;Temp;Humidity;BMP_temperature;BMP_pressure;BME280_temperature;BME280_humidity;BME280_pressure;Samples;Min_cycle;Max_cycle;Signal;HPM_P1;HPM_P2
2022/01/22 00:01:57;;;;;;;;;;;;;;;;;;5029108;28;19922;-69
2022/01/22 00:04:23;;;;;;;;;;;;;;;;;;5019259;28;19944;-70
2022/01/22 00:06:51;;;;;;;;;;;;;;;;;;5017532;28;19925;-69
2022/01/22 00:09:40;;;;;;;;;;;;;;;;;;5010437;28;20004;-71
2022/01/22 00:12:08;;;;;;;;;;;;;;;;;;5016472;28;20032;-69
2022/01/22 00:14:34;;;;;;;;;;;;;;;;;;5011758;28;19948;-69
2022/01/22 00:17:01;;;;;;;;;;;;;;;;;;5014977;28;19975;-68
2022/01/22 00:19:28;;;;;;;;;;;;;;;;;;5015293;28;20307;-69
2022/01/22 00:21:56;;;;;;;;;;;;;;;;;;5015421;28;20325;-69
2022/01/22 00:24:22;;;;;;;;;;;;;;;;;;5015601;28;19987;-69
2022/01/22 00:26:49;;;;;;;;;;;;;;;;;;5018473;28;19925;-69
2022/01/22 00:29:16;;;;;;;;;;;;;;;;;;5015103;28;19968;-69
2022/01/22 00:31:43;;;;;;;;;;;;;;;;;;5015270;28;19921;-69
2022/01/22 00:34:09;;;;;;;;;;;;;;;;;;5015051;28;19925;-68
2022/01/22 00:36:36;;;;;;;;;;;;;;;;;;5015002;28;19922;-70
2022/01/22 00:39:03;;;;;;;;;;;;;;;;;;5015054;28;19975;-69
2022/01/22 00:41:29;;;;;;;;;;;;;;;;;;5015004;28;19925;-69
2022/01/22 00:43:56;;;;;;;;;;;;;;;;;;5014658;28;19921;-68
2022/01/22 00:46:22;;;;;;;;;;;;;;;;;;5014895;28;20379;-69
2022/01/22 00:48:49;;;;;;;;;;;;;;;;;;5014795;28;19921;-69
2022/01/22 00:51:15;;;;;;;;;;;;;;;;;;5014822;28;20347;-69
2022/01/22 00:53:42;;;;;;;;;;;;;;;;;;5014732;28;19991;-69
2022/01/22 00:56:08;;;;;;;;;;;;;;;;;;5014782;28;19921;-69
2022/01/22 00:58:35;;;;;;;;;;;;;;;;;;5014475;28;19968;-71
2022/01/22 01:01:01;;;;;;;;;;;;;;;;;;5014691;28;20431;-69
2022/01/22 01:03:32;;;;;;;;;;;;;;;;;;4996791;28;19925;-68
2022/01/22 01:05:58;;;;;;;;;;;;;;;;;;4995055;28;19921;-68
2022/01/22 01:08:27;;;;;;;;;;;;;;;;;;4994601;28;19929;-69
2022/01/22 01:10:54;;;;;;;;;;;;;;;;;;4994880;28;19968;-69
2022/01/22 01:13:21;;;;;;;;;;;;;;;;;;4994593;28;20340;-69
2022/01/22 01:16:01;;;;;;;;;;;;;;;;;;4994798;28;20396;-69
2022/01/22 01:32:28;;;;;;;;;;;;;;;;;;4994418;28;19926;-69
2022/01/22 01:34:56;;;;;;;;;;;;;;;;;;4994474;28;19929;-68
2022/01/22 01:37:23;;;;;;;;;;;;;;;;;;4994102;28;20359;-68
2022/01/22 01:39:53;;;;;;;;;;;;;;;;;;5009480;28;19921;-68
2022/01/22 01:42:33;;;;;;;;;;;;;;;;;;5013872;28;19921;-68
2022/01/22 01:45:01;;;;;;;;;;;;;;;;;;5013776;28;19922;-68
2022/01/22 01:47:27;;;;;;;;;;;;;;;;;;5013480;28;19921;-68
2022/01/22 01:49:54;;;;;;;;;;;;;;;;;;4998539;28;19921;-68
2022/01/22 01:52:28;;;;;;;;;;;;;;;;;;4993969;28;19948;-69
2022/01/22 01:57:57;;;;;;;;;;;;;;;;;;4972097;28;19984;-68
2022/01/22 02:00:24;;;;;;;;;;;;;;;;;;5008508;28;19929;-68
2022/01/22 02:02:51;;;;;;;;;;;;;;;;;;5013302;28;20380;-69
2022/01/22 02:05:20;;;;;;;;;;;;;;;;;;5013528;28;19921;-66
2022/01/22 02:07:46;;;;;;;;;;;;;;;;;;5013417;28;20285;-67
2022/01/22 02:10:18;;;;;;;;;;;;;;;;;;5013346;28;19929;-67
2022/01/22 02:23:34;;;;;;;;;;;;;;;;;;5012921;28;20455;-68
2022/01/22 02:26:01;;;;;;;;;;;;;;;;;;5013258;28;19921;-67
2022/01/22 02:28:27;;;;;;;;;;;;;;;;;;5012727;28;19925;-68
2022/01/22 02:31:02;;;;;;;;;;;;;;;;;;5013141;28;19976;-68
2022/01/22 02:36:12;;;;;;;;;;;;;;;;;;5013020;28;19921;-70
2022/01/22 02:39:08;;;;;;;;;;;;;;;;;;5012331;28;19968;-68
2022/01/22 02:41:30;;;;;;;;;;;;;;;;;;5012559;28;19925;-68
2022/01/22 02:43:57;;;;;;;;;;;;;;;;;;5012594;28;19925;-68
2022/01/22 02:46:24;;;;;;;;;;;;;;;;;;5012683;28;19929;-68
2022/01/22 02:48:52;;;;;;;;;;;;;;;;;;5012318;28;19975;-68
2022/01/22 02:51:18;;;;;;;;;;;;;;;;;;5012159;28;19975;-69
2022/01/22 02:53:44;;;;;;;;;;;;;;;;;;5012513;28;19921;-68
2022/01/22 02:56:11;;;;;;;;;;;;;;;;;;5012600;28;20347;-68
2022/01/22 02:58:38;;;;;;;;;;;;;;;;;;5011685;28;19926;-69
2022/01/22 03:01:04;;;;;;;;;;;;;;;;;;5012771;28;19925;-69
2022/01/22 03:03:31;;;;;;;;;;;;;;;;;;5012289;28;19921;-69
2022/01/22 03:05:58;;;;;;;;;;;;;;;;;;5012603;28;19925;-68
2022/01/22 03:08:28;;;;;;;;;;;;;;;;;;5012238;28;20400;-67
2022/01/22 03:10:55;;;;;;;;;;;;;;;;;;5012452;28;19969;-67
2022/01/22 03:19:14;;;;;;;;;;;;;;;;;;4975714;28;19993;-67
2022/01/22 03:21:53;;;;;;;;;;;;;;;;;;5012522;28;20339;-67
2022/01/22 03:27:22;;;;;;;;;;;;;;;;;;5012316;28;19975;-68
2022/01/22 03:29:50;;;;;;;;;;;;;;;;;;5012300;28;19921;-67
2022/01/22 03:32:17;;;;;;;;;;;;;;;;;;5012022;28;20342;-70
2022/01/22 03:34:56;;;;;;;;;;;;;;;;;;5012246;28;19921;-68
2022/01/22 03:37:23;;;;;;;;;;;;;;;;;;5012045;28;20364;-67
2022/01/22 03:39:50;;;;;;;;;;;;;;;;;;5002736;28;19976;-67
2022/01/22 03:42:16;;;;;;;;;;;;;;;;;;4992533;28;19969;-67
2022/01/22 03:44:43;;;;;;;;;;;;;;;;;;4992355;28;19921;-67
2022/01/22 03:47:09;;;;;;;;;;;;;;;;;;4992479;28;20451;-67
2022/01/22 03:49:35;;;;;;;;;;;;;;;;;;4992575;28;19926;-68
2022/01/22 03:52:02;;;;;;;;;;;;;;;;;;5007250;28;19921;-68
2022/01/22 03:54:29;;;;;;;;;;;;;;;;;;5015633;28;19921;-67
2022/01/22 03:56:55;;;;;;;;;;;;;;;;;;5015804;28;20312;-67
2022/01/22 03:59:22;;;;;;;;;;;;;;;;;;5014958;28;20347;-70
2022/01/22 04:04:28;;;;;;;;;;;;;;;;;;5015373;28;20007;-67
2022/01/22 04:09:23;;;;;;;;;;;;;;;;;;5010443;28;19922;-67
2022/01/22 04:11:52;;;;;;;;;;;;;;;;;;5012704;28;19921;-67
2022/01/22 04:14:23;;;;;;;;;;;;;;;;;;5014485;28;19922;-67
2022/01/22 04:17:21;;;;;;;;;;;;;;;;;;5012730;28;19991;-67
2022/01/22 04:25:23;;;;;;;;;;;;;;;;;;4995118;28;19921;-67
2022/01/22 04:27:51;;;;;;;;;;;;;;;;;;5001142;28;19976;-67
2022/01/22 04:30:18;;;;;;;;;;;;;;;;;;5015181;28;19925;-69
2022/01/22 04:32:44;;;;;;;;;;;;;;;;;;5015588;28;19991;-70
2022/01/22 04:35:11;;;;;;;;;;;;;;;;;;5015252;28;19921;-69
2022/01/22 04:37:38;;;;;;;;;;;;;;;;;;5013920;28;19925;-69
2022/01/22 04:40:06;;;;;;;;;;;;;;;;;;5015155;28;19921;-68
2022/01/22 04:42:35;;;;;;;;;;;;;;;;;;5014802;28;19925;-70
2022/01/22 04:45:12;;;;;;;;;;;;;;;;;;5014989;28;19975;-70
2022/01/22 04:54:58;;;;;;;;;;;;;;;;;;5014778;28;19926;-70
2022/01/22 04:55:50;;;;;;;;;;;;;;;;;;5020162;28;19925;-69
2022/01/22 04:58:16;;;;;;;;;;;;;;;;;;5023441;28;20384;-70
2022/01/22 05:00:43;;;;;;;;;;;;;;;;;;5022582;28;19921;-70
2022/01/22 05:03:10;;;;;;;;;;;;;;;;;;5013150;28;19921;-68
2022/01/22 05:05:36;;;;;;;;;;;;;;;;;;5014622;28;19975;-68
2022/01/22 05:08:03;;;;;;;;;;;;;;;;;;5014606;28;19925;-68
2022/01/22 05:10:29;;;;;;;;;;;;;;;;;;5014347;28;19975;-68
2022/01/22 05:12:56;;;;;;;;;;;;;;;;;;5014428;28;19991;-69
2022/01/22 05:15:22;;;;;;;;;;;;;;;;;;5014643;28;19944;-69
2022/01/22 05:17:49;;;;;;;;;;;;;;;;;;5014318;28;19921;-68
2022/01/22 05:25:22;;;;;;;;;;;;;;;;;;5008988;28;19925;-68
2022/01/22 05:38:22;;;;;;;;;;;;;;;;;;5012523;28;19921;-68
2022/01/22 05:40:49;;;;;;;;;;;;;;;;;;5012789;28;19980;-70
2022/01/22 05:43:15;;;;;;;;;;;;;;;;;;5013710;28;19922;-70
2022/01/22 05:45:42;;;;;;;;;;;;;;;;;;5013725;28;20311;-71
2022/01/22 05:48:08;;;;;;;;;;;;;;;;;;5013713;28;20008;-70
2022/01/22 05:51:00;;;;;;;;;;;;;;;;;;4993097;28;20245;-69
2022/01/22 06:01:19;;;;;;;;;;;;;;;;;;4998073;28;19921;-69
2022/01/22 06:03:46;;;;;;;;;;;;;;;;;;4993784;28;19926;-69
2022/01/22 06:06:13;;;;;;;;;;;;;;;;;;4994168;28;20085;-69
2022/01/22 06:08:53;;;;;;;;;;;;;;;;;;4996708;28;19968;-68
2022/01/22 06:11:25;;;;;;;;;;;;;;;;;;5013399;28;19921;-69
2022/01/22 06:13:51;;;;;;;;;;;;;;;;;;5013155;28;19968;-68
2022/01/22 06:16:19;;;;;;;;;;;;;;;;;;5013107;28;20339;-69
2022/01/22 06:18:46;;;;;;;;;;;;;;;;;;5009259;28;19944;-69
2022/01/22 06:21:12;;;;;;;;;;;;;;;;;;4994546;28;20372;-70
2022/01/22 06:23:39;;;;;;;;;;;;;;;;;;4993223;28;19921;-70
2022/01/22 06:26:06;;;;;;;;;;;;;;;;;;4993424;28;19948;-70
2022/01/22 06:28:32;;;;;;;;;;;;;;;;;;4993228;28;19926;-70
2022/01/22 06:30:59;;;;;;;;;;;;;;;;;;4993244;28;20340;-70
2022/01/22 06:33:26;;;;;;;;;;;;;;;;;;4993129;28;20064;-71
2022/01/22 06:35:53;;;;;;;;;;;;;;;;;;4993314;28;20004;-69
2022/01/22 06:38:19;;;;;;;;;;;;;;;;;;4993366;28;20293;-70
2022/01/22 06:43:31;;;;;;;;;;;;;;;;;;4992968;28;19926;-70
2022/01/22 06:45:58;;;;;;;;;;;;;;;;;;4993168;28;19922;-70
2022/01/22 06:48:24;;;;;;;;;;;;;;;;;;5006112;28;19929;-68
2022/01/22 06:50:51;;;;;;;;;;;;;;;;;;5012681;28;20380;-69
2022/01/22 06:53:17;;;;;;;;;;;;;;;;;;5012515;28;19921;-69
2022/01/22 06:55:50;;;;;;;;;;;;;;;;;;5012602;28;19921;-71
2022/01/22 06:58:17;;;;;;;;;;;;;;;;;;5009581;28;19948;-70
2022/01/22 07:00:43;;;;;;;;;;;;;;;;;;5011311;28;19921;-71
2022/01/22 07:03:10;;;;;;;;;;;;;;;;;;5012485;28;19921;-71
2022/01/22 07:05:37;;;;;;;;;;;;;;;;;;5012369;28;19921;-71
2022/01/22 07:08:03;;;;;;;;;;;;;;;;;;5012073;28;19921;-71
2022/01/22 07:10:31;;;;;;;;;;;;;;;;;;5012374;28;19922;-69
2022/01/22 07:12:57;;;;;;;;;;;;;;;;;;5012412;28;19921;-69
2022/01/22 07:15:23;;;;;;;;;;;;;;;;;;5012407;28;19922;-68
2022/01/22 07:17:50;;;;;;;;;;;;;;;;;;5011761;28;20373;-70
2022/01/22 07:20:25;;;;;;;;;;;;;;;;;;5012427;28;19921;-70
2022/01/22 07:22:54;;;;;;;;;;;;;;;;;;5012242;28;20447;-69
2022/01/22 07:25:21;;;;;;;;;;;;;;;;;;5012699;28;20008;-70
2022/01/22 07:27:47;;;;;;;;;;;;;;;;;;5015657;28;19929;-70
2022/01/22 07:30:14;;;;;;;;;;;;;;;;;;5016367;28;19922;-70
2022/01/22 07:32:43;;;;;;;;;;;;;;;;;;5016077;28;20276;-69
2022/01/22 07:35:13;;;;;;;;;;;;;;;;;;5015889;28;19948;-68
2022/01/22 07:37:40;;;;;;;;;;;;;;;;;;5009571;28;19930;-68
2022/01/22 07:40:07;;;;;;;;;;;;;;;;;;5016252;28;19976;-70
2022/01/22 07:42:34;;;;;;;;;;;;;;;;;;5016010;28;20451;-71
2022/01/22 07:45:01;;;;;;;;;;;;;;;;;;5016255;28;19928;-70
2022/01/22 07:47:27;;;;;;;;;;;;;;;;;;5015340;28;19975;-71
2022/01/22 07:49:54;;;;;;;;;;;;;;;;;;5016167;28;19925;-71
2022/01/22 07:52:20;;;;;;;;;;;;;;;;;;5013667;28;19968;-69
2022/01/22 07:54:46;;;;;;;;;;;;;;;;;;5014387;28;20264;-70
2022/01/22 07:57:13;;;;;;;;;;;;;;;;;;5015698;28;19952;-71
2022/01/22 07:59:39;;;;;;;;;;;;;;;;;;5014409;28;19932;-70
2022/01/22 08:02:06;;;;;;;;;;;;;;;;;;5014205;28;20371;-70
2022/01/22 08:04:33;;;;;;;;;;;;;;;;;;5013389;28;19967;-70
2022/01/22 08:07:00;;;;;;;;;;;;;;;;;;5013982;28;19922;-70
2022/01/22 08:09:27;;;;;;;;;;;;;;;;;;5013700;28;19976;-69
2022/01/22 08:11:53;;;;;;;;;;;;;;;;;;5013951;28;19992;-70
2022/01/22 08:14:19;;;;;;;;;;;;;;;;;;5013559;28;20384;-70
2022/01/22 08:16:48;;;;;;;;;;;;;;;;;;5013394;28;19925;-70
2022/01/22 08:19:15;;;;;;;;;;;;;;;;;;5013642;28;19988;-70
2022/01/22 08:21:43;;;;;;;;;;;;;;;;;;5013695;28;19952;-70
2022/01/22 08:24:10;;;;;;;;;;;;;;;;;;5013576;28;19932;-70
2022/01/22 08:26:38;;;;;;;;;;;;;;;;;;5013508;28;19921;-70
2022/01/22 08:29:05;;;;;;;;;;;;;;;;;;5013504;28;19922;-71
2022/01/22 08:36:44;;;;;;;;;;;;;;;;;;5013263;28;19991;-71
2022/01/22 08:39:11;;;;;;;;;;;;;;;;;;5013084;28;19968;-70
2022/01/22 08:41:38;;;;;;;;;;;;;;;;;;5013256;28;20438;-71
2022/01/22 08:44:05;;;;;;;;;;;;;;;;;;5011886;28;19983;-70
2022/01/22 08:46:34;;;;;;;;;;;;;;;;;;5008160;28;20008;-69
2022/01/22 08:49:01;;;;;;;;;;;;;;;;;;5015028;28;19921;-71
2022/01/22 08:51:27;;;;;;;;;;;;;;;;;;5017553;28;19925;-72
2022/01/22 08:53:55;;;;;;;;;;;;;;;;;;5015907;28;19967;-71
2022/01/22 08:56:21;;;;;;;;;;;;;;;;;;5016538;28;19945;-70
2022/01/22 08:58:50;;;;;;;;;;;;;;;;;;5015281;28;19921;-71
2022/01/22 09:01:16;;;;;;;;;;;;;;;;;;5015893;28;19921;-70
2022/01/22 09:03:46;;;;;;;;;;;;;;;;;;5003510;28;20326;-72
2022/01/22 09:06:13;;;;;;;;;;;;;;;;;;5004315;28;19967;-70
2022/01/22 09:08:39;;;;;;;;;;;;;;;;;;5000362;28;19929;-69
2022/01/22 09:11:06;;;;;;;;;;;;;;;;;;5000741;28;19933;-69
2022/01/22 09:13:33;;;;;;;;;;;;;;;;;;5000363;28;19925;-68
2022/01/22 09:15:59;;;;;;;;;;;;;;;;;;5000110;28;20343;-69
2022/01/22 09:18:26;;;;;;;;;;;;;;;;;;5000900;28;19964;-68
2022/01/22 09:21:02;;;;;;;;;;;;;;;;;;4999807;28;19976;-69
2022/01/22 09:23:29;;;;;;;;;;;;;;;;;;5004059;28;19921;-70
2022/01/22 09:25:56;;;;;;;;;;;;;;;;;;4998308;28;19929;-70
2022/01/22 09:28:24;;;;;;;;;;;;;;;;;;5000814;28;19925;-69
2022/01/22 09:30:50;;;;;;;;;;;;;;;;;;4999820;28;19976;-70
2022/01/22 09:33:17;;;;;;;;;;;;;;;;;;5000408;28;20351;-70
2022/01/22 09:35:43;;;;;;;;;;;;;;;;;;5000300;28;19925;-70
2022/01/22 09:38:10;;;;;;;;;;;;;;;;;;5000161;28;19921;-67
2022/01/22 09:40:36;;;;;;;;;;;;;;;;;;4999938;28;20045;-68
2022/01/22 09:43:02;;;;;;;;;;;;;;;;;;5000604;28;20446;-70
2022/01/22 09:45:29;;;;;;;;;;;;;;;;;;5000847;28;20011;-70
2022/01/22 09:47:58;;;;;;;;;;;;;;;;;;5002205;28;19926;-70
2022/01/22 09:50:25;;;;;;;;;;;;;;;;;;5003181;28;19976;-70
2022/01/22 09:52:51;;;;;;;;;;;;;;;;;;4999162;28;19976;-70
2022/01/22 09:55:18;;;;;;;;;;;;;;;;;;5013553;28;20355;-68
2022/01/22 09:57:45;;;;;;;;;;;;;;;;;;4999007;28;20365;-69
2022/01/22 10:00:13;;;;;;;;;;;;;;;;;;5012413;28;19921;-67
2022/01/22 10:02:43;;;;;;;;;;;;;;;;;;5009379;28;19979;-70
2022/01/22 10:05:25;;;;;;;;;;;;;;;;;;5005125;28;19926;-71
2022/01/22 10:07:54;;;;;;;;;;;;;;;;;;5010377;28;19975;-70
2022/01/22 10:10:21;;;;;;;;;;;;;;;;;;5009706;28;20343;-70
2022/01/22 10:12:52;;;;;;;;;;;;;;;;;;5011343;28;20396;-71
2022/01/22 10:15:19;;;;;;;;;;;;;;;;;;4998919;28;19938;-69
2022/01/22 10:17:49;;;;;;;;;;;;;;;;;;5002051;28;20380;-68
2022/01/22 10:20:25;;;;;;;;;;;;;;;;;;4999842;28;20447;-67
2022/01/22 10:22:52;;;;;;;;;;;;;;;;;;4998515;28;19922;-68
2022/01/22 10:25:28;;;;;;;;;;;;;;;;;;5000198;28;19945;-67
2022/01/22 10:27:55;;;;;;;;;;;;;;;;;;4998847;28;19972;-67
2022/01/22 10:30:22;;;;;;;;;;;;;;;;;;4999838;28;19933;-68
2022/01/22 10:35:19;;;;;;;;;;;;;;;;;;4999276;28;19921;-67
2022/01/22 10:38:04;;;;;;;;;;;;;;;;;;5001537;28;19961;-69
2022/01/22 10:40:32;;;;;;;;;;;;;;;;;;4998770;28;19925;-70
2022/01/22 10:43:11;;;;;;;;;;;;;;;;;;4999438;28;19983;-68
2022/01/22 10:45:41;;;;;;;;;;;;;;;;;;4999770;28;19980;-68
2022/01/22 10:48:18;;;;;;;;;;;;;;;;;;4998299;28;19991;-68
2022/01/22 10:50:45;;;;;;;;;;;;;;;;;;5001395;28;19928;-70
2022/01/22 10:53:11;;;;;;;;;;;;;;;;;;5014412;28;19925;-67
2022/01/22 10:55:58;;;;;;;;;;;;;;;;;;4998094;28;19925;-68
2022/01/22 10:58:24;;;;;;;;;;;;;;;;;;4999749;28;19922;-69
2022/01/22 11:00:58;;;;;;;;;;;;;;;;;;4999027;28;20458;-69
2022/01/22 11:03:26;;;;;;;;;;;;;;;;;;4997572;28;19922;-68
2022/01/22 11:05:52;;;;;;;;;;;;;;;;;;5000063;28;19925;-68
2022/01/22 11:08:19;;;;;;;;;;;;;;;;;;4997369;28;19968;-69
2022/01/22 11:10:45;;;;;;;;;;;;;;;;;;4999949;28;19926;-71
2022/01/22 11:13:12;;;;;;;;;;;;;;;;;;5000770;28;19925;-69
2022/01/22 11:15:39;;;;;;;;;;;;;;;;;;4999650;28;19964;-69
2022/01/22 11:18:05;;;;;;;;;;;;;;;;;;4997850;28;19951;-68
2022/01/22 11:20:35;;;;;;;;;;;;;;;;;;4998308;28;20336;-69
2022/01/22 11:23:01;;;;;;;;;;;;;;;;;;4997984;28;20356;-69
2022/01/22 11:25:28;;;;;;;;;;;;;;;;;;5000872;28;19933;-68
2022/01/22 11:27:54;;;;;;;;;;;;;;;;;;4998183;28;19972;-68
2022/01/22 11:30:25;;;;;;;;;;;;;;;;;;4998827;28;19921;-68
2022/01/22 11:32:52;;;;;;;;;;;;;;;;;;5013537;28;19921;-68
2022/01/22 11:35:20;;;;;;;;;;;;;;;;;;4996271;28;20402;-68
2022/01/22 11:37:47;;;;;;;;;;;;;;;;;;5011806;28;19922;-69
2022/01/22 11:40:15;;;;;;;;;;;;;;;;;;4997142;28;19921;-69
2022/01/22 11:43:01;;;;;;;;;;;;;;;;;;4999628;28;20296;-69
2022/01/22 11:45:30;;;;;;;;;;;;;;;;;;4999247;28;19972;-70
2022/01/22 11:48:09;;;;;;;;;;;;;;;;;;4996856;28;20285;-68
2022/01/22 11:50:36;;;;;;;;;;;;;;;;;;5004123;28;19954;-65
2022/01/22 11:53:20;;;;;;;;;;;;;;;;;;4999414;28;19976;-68
2022/01/22 11:56:06;;;;;;;;;;;;;;;;;;4997593;28;20068;-67
2022/01/22 11:58:32;;;;;;;;;;;;;;;;;;5003880;28;19921;-72
2022/01/22 12:00:59;;;;;;;;;;;;;;;;;;4996686;28;20400;-74
2022/01/22 12:03:25;;;;;;;;;;;;;;;;;;4996832;28;19922;-71
2022/01/22 12:06:12;;;;;;;;;;;;;;;;;;5000361;28;20020;-71
2022/01/22 12:08:58;;;;;;;;;;;;;;;;;;4998830;28;19925;-70
2022/01/22 12:14:51;;;;;;;;;;;;;;;;;;5005935;28;19965;-70
2022/01/22 12:17:24;;;;;;;;;;;;;;;;;;5001864;28;19928;-72
2022/01/22 12:20:05;;;;;;;;;;;;;;;;;;5000665;28;19921;-71
2022/01/22 12:22:35;;;;;;;;;;;;;;;;;;5003650;28;19929;-69
2022/01/22 12:25:01;;;;;;;;;;;;;;;;;;5001572;28;19926;-70
2022/01/22 12:27:47;;;;;;;;;;;;;;;;;;5001036;28;19925;-68
2022/01/22 12:30:14;;;;;;;;;;;;;;;;;;5000543;28;19975;-71
2022/01/22 12:32:44;;;;;;;;;;;;;;;;;;5000835;28;20380;-71
2022/01/22 12:35:14;;;;;;;;;;;;;;;;;;5001504;28;19980;-71
2022/01/22 12:37:44;;;;;;;;;;;;;;;;;;5022010;28;19926;-72
2022/01/22 12:40:11;;;;;;;;;;;;;;;;;;5000106;28;19969;-70
2022/01/22 12:43:10;;;;;;;;;;;;;;;;;;5004498;28;19932;-71
2022/01/22 12:45:38;;;;;;;;;;;;;;;;;;5001759;28;19999;-70
2022/01/22 12:48:04;;;;;;;;;;;;;;;;;;5003075;28;19928;-66
2022/01/22 12:50:32;;;;;;;;;;;;;;;;;;5016551;28;19972;-70
2022/01/22 12:53:03;;;;;;;;;;;;;;;;;;5003601;28;19980;-69
2022/01/22 12:58:23;;;;;;;;;;;;;;;;;;5003210;28;20351;-69
2022/01/22 13:00:52;;;;;;;;;;;;;;;;;;5001824;28;19926;-70
2022/01/22 13:03:31;;;;;;;;;;;;;;;;;;5001930;28;20389;-71
2022/01/22 13:05:58;;;;;;;;;;;;;;;;;;5001728;28;19968;-72
2022/01/22 13:08:28;;;;;;;;;;;;;;;;;;4999902;28;20350;-69
2022/01/22 13:10:55;;;;;;;;;;;;;;;;;;5003132;28;20312;-70
2022/01/22 13:13:28;;;;;;;;;;;;;;;;;;5001443;28;19933;-70
2022/01/22 13:16:02;;;;;;;;;;;;;;;;;;5000709;28;19921;-69
2022/01/22 13:18:43;;;;;;;;;;;;;;;;;;5001314;28;19922;-70
2022/01/22 13:21:10;;;;;;;;;;;;;;;;;;5001196;28;19975;-69
2022/01/22 13:23:37;;;;;;;;;;;;;;;;;;4998834;28;19926;-69
2022/01/22 13:26:04;;;;;;;;;;;;;;;;;;5001705;28;19922;-69
2022/01/22 13:28:33;;;;;;;;;;;;;;;;;;4999359;28;19983;-70
2022/01/22 13:31:06;;;;;;;;;;;;;;;;;;5003592;28;20404;-70
2022/01/22 13:49:36;;;;;;;;;;;;;;;;;;5002067;28;20023;-71
2022/01/22 13:52:06;;;;;;;;;;;;;;;;;;5008789;28;19983;-70
2022/01/22 13:54:36;;;;;;;;;;;;;;;;;;5007539;28;19921;-72
2022/01/22 13:57:04;;;;;;;;;;;;;;;;;;5002824;28;19971;-71
2022/01/22 13:59:34;;;;;;;;;;;;;;;;;;5025231;28;19926;-68
2022/01/22 14:04:50;;;;;;;;;;;;;;;;;;5017018;28;19994;-70
2022/01/22 14:07:17;;;;;;;;;;;;;;;;;;5009722;28;19921;-69
2022/01/22 14:09:53;;;;;;;;;;;;;;;;;;5005178;28;19967;-69
2022/01/22 14:12:20;;;;;;;;;;;;;;;;;;5009086;28;19945;-70
2022/01/22 14:15:01;;;;;;;;;;;;;;;;;;5006754;28;20355;-71
2022/01/22 14:17:36;;;;;;;;;;;;;;;;;;5006780;28;19929;-67
2022/01/22 14:20:07;;;;;;;;;;;;;;;;;;5008454;28;20202;-70
2022/01/22 14:22:53;;;;;;;;;;;;;;;;;;5004998;28;19929;-70
2022/01/22 14:25:20;;;;;;;;;;;;;;;;;;5005236;28;20339;-70
2022/01/22 14:27:56;;;;;;;;;;;;;;;;;;5001410;28;19951;-70
2022/01/22 14:30:30;;;;;;;;;;;;;;;;;;4998590;28;19930;-70
2022/01/22 14:32:57;;;;;;;;;;;;;;;;;;4998601;28;19925;-70
2022/01/22 14:35:23;;;;;;;;;;;;;;;;;;5000394;28;19921;-70
2022/01/22 14:37:53;;;;;;;;;;;;;;;;;;5002466;28;19922;-69
2022/01/22 14:45:57;;;;;;;;;;;;;;;;;;4999152;28;19926;-70
2022/01/22 14:48:24;;;;;;;;;;;;;;;;;;5000616;28;19929;-70
2022/01/22 14:50:51;;;;;;;;;;;;;;;;;;5002359;28;19976;-70
2022/01/22 14:53:17;;;;;;;;;;;;;;;;;;5003646;28;19921;-68
2022/01/22 14:55:51;;;;;;;;;;;;;;;;;;4998890;28;19922;-69
2022/01/22 14:58:17;;;;;;;;;;;;;;;;;;5003923;28;19933;-67
2022/01/22 15:00:48;;;;;;;;;;;;;;;;;;5000312;28;19941;-68
2022/01/22 15:03:15;;;;;;;;;;;;;;;;;;4997744;28;19922;-69
2022/01/22 15:05:43;;;;;;;;;;;;;;;;;;5000015;28;20048;-68
2022/01/22 15:08:09;;;;;;;;;;;;;;;;;;4992939;28;20004;-71
2022/01/22 15:10:36;;;;;;;;;;;;;;;;;;4994356;28;19930;-72
2022/01/22 15:13:02;;;;;;;;;;;;;;;;;;4997790;28;19972;-69
2022/01/22 15:15:35;;;;;;;;;;;;;;;;;;5000505;28;19929;-70
2022/01/22 15:18:27;;;;;;;;;;;;;;;;;;4999508;28;19928;-69
2022/01/22 15:20:53;;;;;;;;;;;;;;;;;;4995901;28;19932;-67
2022/01/22 15:23:20;;;;;;;;;;;;;;;;;;4997727;28;19925;-67
2022/01/22 15:25:46;;;;;;;;;;;;;;;;;;4995954;28;19922;-70
2022/01/22 15:28:13;;;;;;;;;;;;;;;;;;4998344;28;19991;-67
2022/01/22 15:30:44;;;;;;;;;;;;;;;;;;4996425;28;19925;-68
2022/01/22 15:33:21;;;;;;;;;;;;;;;;;;4998483;28;19929;-68
2022/01/22 15:35:47;;;;;;;;;;;;;;;;;;4997275;28;20015;-67
2022/01/22 15:38:14;;;;;;;;;;;;;;;;;;4995475;28;19928;-67
2022/01/22 15:40:41;;;;;;;;;;;;;;;;;;4996921;28;19921;-69
2022/01/22 15:43:08;;;;;;;;;;;;;;;;;;4997335;28;19925;-68
2022/01/22 15:45:36;;;;;;;;;;;;;;;;;;4997049;28;19929;-65
2022/01/22 15:48:03;;;;;;;;;;;;;;;;;;4998018;28;19980;-68
2022/01/22 15:50:30;;;;;;;;;;;;;;;;;;4998047;28;20434;-68
2022/01/22 15:53:07;;;;;;;;;;;;;;;;;;5004971;28;20008;-68
2022/01/22 15:55:34;;;;;;;;;;;;;;;;;;4999080;28;20204;-69
2022/01/22 15:58:00;;;;;;;;;;;;;;;;;;5001654;28;20262;-68
2022/01/22 16:00:33;;;;;;;;;;;;;;;;;;5001407;28;19922;-69
2022/01/22 16:02:59;;;;;;;;;;;;;;;;;;5000764;28;20496;-67
2022/01/22 16:05:26;;;;;;;;;;;;;;;;;;4998976;28;19925;-68
2022/01/22 16:07:52;;;;;;;;;;;;;;;;;;5000466;28;20268;-67
2022/01/22 16:10:39;;;;;;;;;;;;;;;;;;5001811;28;20032;-66
2022/01/22 16:13:05;;;;;;;;;;;;;;;;;;4998633;28;19926;-68
2022/01/22 16:15:32;;;;;;;;;;;;;;;;;;5000034;28;19929;-70
2022/01/22 16:17:59;;;;;;;;;;;;;;;;;;5013875;28;19981;-70
2022/01/22 16:20:26;;;;;;;;;;;;;;;;;;5001787;28;20489;-69
2022/01/22 16:22:57;;;;;;;;;;;;;;;;;;4999193;28;19926;-69
2022/01/22 16:25:24;;;;;;;;;;;;;;;;;;4999859;28;19972;-72
2022/01/22 16:27:51;;;;;;;;;;;;;;;;;;4999739;28;19921;-70
2022/01/22 16:30:18;;;;;;;;;;;;;;;;;;4998637;28;19921;-70
2022/01/22 16:32:45;;;;;;;;;;;;;;;;;;5002601;28;20389;-69
2022/01/22 16:35:12;;;;;;;;;;;;;;;;;;5000832;28;19965;-70
2022/01/22 16:37:39;;;;;;;;;;;;;;;;;;5012611;28;20384;-70
2022/01/22 16:40:13;;;;;;;;;;;;;;;;;;4997945;28;20372;-69
2022/01/22 16:42:46;;;;;;;;;;;;;;;;;;4999919;28;19929;-67
2022/01/22 16:45:53;;;;;;;;;;;;;;;;;;4999652;28;20674;-70
2022/01/22 16:56:20;;;;;;;;;;;;;;;;;;4999914;28;20277;-70
2022/01/22 16:58:49;;;;;;;;;;;;;;;;;;5001438;28;19999;-69
2022/01/22 17:01:25;;;;;;;;;;;;;;;;;;4998397;28;19976;-69
2022/01/22 17:03:54;;;;;;;;;;;;;;;;;;4999800;28;20012;-70
2022/01/22 17:06:20;;;;;;;;;;;;;;;;;;4997406;28;19930;-70
2022/01/22 17:08:49;;;;;;;;;;;;;;;;;;4997003;28;19992;-70
2022/01/22 17:11:25;;;;;;;;;;;;;;;;;;5000721;28;20495;-70
2022/01/22 17:14:12;;;;;;;;;;;;;;;;;;4997416;28;19922;-70
2022/01/22 17:16:39;;;;;;;;;;;;;;;;;;4998871;28;19930;-68
2022/01/22 17:19:05;;;;;;;;;;;;;;;;;;5012446;28;19948;-68
2022/01/22 17:21:32;;;;;;;;;;;;;;;;;;4999766;28;19930;-71
2022/01/22 17:23:58;;;;;;;;;;;;;;;;;;5002464;28;20451;-71
2022/01/22 17:26:24;;;;;;;;;;;;;;;;;;4997381;28;20365;-67
2022/01/22 17:28:52;;;;;;;;;;;;;;;;;;4996670;28;19922;-70
2022/01/22 17:31:21;;;;;;;;;;;;;;;;;;4996024;28;19906;-70
2022/01/22 17:33:48;;;;;;;;;;;;;;;;;;4996929;28;20296;-71
2022/01/22 17:36:15;;;;;;;;;;;;;;;;;;4997728;28;19976;-69
2022/01/22 17:38:41;;;;;;;;;;;;;;;;;;5012457;28;19922;-66
2022/01/22 17:41:11;;;;;;;;;;;;;;;;;;5008299;28;19976;-71
2022/01/22 17:43:38;;;;;;;;;;;;;;;;;;5003519;28;19978;-71
2022/01/22 17:46:05;;;;;;;;;;;;;;;;;;4998048;28;20429;-70
2022/01/22 17:48:33;;;;;;;;;;;;;;;;;;4996131;28;19937;-71
2022/01/22 17:51:02;;;;;;;;;;;;;;;;;;4998434;28;19921;-70
2022/01/22 17:53:29;;;;;;;;;;;;;;;;;;4999409;28;20389;-70
2022/01/22 17:55:57;;;;;;;;;;;;;;;;;;5010652;28;19926;-70
2022/01/22 17:58:24;;;;;;;;;;;;;;;;;;4999015;28;19948;-71
2022/01/22 18:01:00;;;;;;;;;;;;;;;;;;5001989;28;19925;-70
2022/01/22 18:03:28;;;;;;;;;;;;;;;;;;4996880;28;20020;-71
2022/01/22 18:05:56;;;;;;;;;;;;;;;;;;4997968;28;19972;-71
2022/01/22 18:08:22;;;;;;;;;;;;;;;;;;4997506;28;20343;-71
2022/01/22 18:10:55;;;;;;;;;;;;;;;;;;4999343;28;19932;-70
2022/01/22 18:13:21;;;;;;;;;;;;;;;;;;4995765;28;20373;-70
2022/01/22 18:15:49;;;;;;;;;;;;;;;;;;5011590;28;19922;-70
2022/01/22 18:18:16;;;;;;;;;;;;;;;;;;5000886;28;19987;-70
2022/01/22 18:20:43;;;;;;;;;;;;;;;;;;5002394;28;19925;-71
2022/01/22 18:23:09;;;;;;;;;;;;;;;;;;5009706;28;19921;-68
2022/01/22 18:25:36;;;;;;;;;;;;;;;;;;5018362;28;19929;-69
2022/01/22 18:28:02;;;;;;;;;;;;;;;;;;5035875;28;19909;-71
2022/01/22 18:30:29;;;;;;;;;;;;;;;;;;5020512;28;19910;-69
2022/01/22 18:32:55;;;;;;;;;;;;;;;;;;5021690;28;19909;-70
2022/01/22 18:35:22;;;;;;;;;;;;;;;;;;5022552;28;19953;-68
2022/01/22 18:37:48;;;;;;;;;;;;;;;;;;5022872;28;19921;-70
2022/01/22 18:40:16;;;;;;;;;;;;;;;;;;5020678;28;19918;-68
2022/01/22 18:42:45;;;;;;;;;;;;;;;;;;5024089;28;19917;-68
2022/01/22 18:45:11;;;;;;;;;;;;;;;;;;5007611;28;19921;-70
2022/01/22 18:47:39;;;;;;;;;;;;;;;;;;5009757;28;19921;-68
2022/01/22 18:50:06;;;;;;;;;;;;;;;;;;4998383;28;19926;-69
2022/01/22 18:52:33;;;;;;;;;;;;;;;;;;5000807;28;19941;-71
2022/01/22 18:54:59;;;;;;;;;;;;;;;;;;4997438;28;19972;-72
2022/01/22 18:57:25;;;;;;;;;;;;;;;;;;4999437;28;19922;-69
2022/01/22 18:59:52;;;;;;;;;;;;;;;;;;4998694;28;19980;-71
2022/01/22 19:02:20;;;;;;;;;;;;;;;;;;4998603;28;19925;-71
2022/01/22 19:04:47;;;;;;;;;;;;;;;;;;4996820;28;19950;-71
2022/01/22 19:07:14;;;;;;;;;;;;;;;;;;4994647;28;19928;-70